createdAt,value
2023-05-11T00:17:13.490Z,935.04
2023-05-11T00:21:22.472Z,935.02
2023-05-11T00:22:13.123Z,935.05
2023-05-11T00:25:23.786Z,935.02
2023-05-11T00:28:20.366Z,935.03
2023-05-11T00:34:45.838Z,935.03
2023-05-11T00:36:32.541Z,935.04
2023-05-11T00:39:27.902Z,934.98
2023-05-11T00:44:11.574Z,934.94
2023-05-11T00:47:00.259Z,934.93
2023-05-11T00:51:43.365Z,934.91
2023-05-11T00:52:53.269Z,934.94
2023-05-11T00:57:03.117Z,934.87
2023-05-11T01:01:03.017Z,934.96
2023-05-11T01:14:12.505Z,934.99
2023-05-11T01:15:43.017Z,935.01
2023-05-11T01:16:16.392Z,935.02
2023-05-11T01:22:42.019Z,934.91
2023-05-11T01:36:08.888Z,934.59
2023-05-11T01:42:01.770Z,934.42
2023-05-11T01:46:56.004Z,934.37
2023-05-11T01:53:11.005Z,934.42
2023-05-11T02:00:57.991Z,934.38
2023-05-11T02:04:48.393Z,934.33
2023-05-11T02:08:19.428Z,934.41
2023-05-11T02:08:54.296Z,934.33
2023-05-11T02:11:11.188Z,934.24
2023-05-11T02:12:24.150Z,934.28
2023-05-11T02:13:30.763Z,934.26
2023-05-11T02:14:15.176Z,934.29
2023-05-11T02:15:17.719Z,934.26
2023-05-11T02:16:30.758Z,934.24
2023-05-11T02:17:08.651Z,934.22
2023-05-11T02:18:51.067Z,934.21
2023-05-11T02:23:31.708Z,934.14
2023-05-11T02:24:06.571Z,934.14
2023-05-11T02:25:12.848Z,934.16
2023-05-11T02:27:36.426Z,934.24
2023-05-11T02:28:42.962Z,934.19
2023-05-11T02:29:18.659Z,934.18
2023-05-11T02:35:48.980Z,934.00
2023-05-11T02:42:13.546Z,933.99
2023-05-11T02:42:47.565Z,933.93
2023-05-11T02:44:39.939Z,933.91
2023-05-11T02:45:08.245Z,933.90
2023-05-11T02:45:41.531Z,933.88
2023-05-11T02:47:27.553Z,933.88
2023-05-11T02:48:00.800Z,933.85
2023-05-11T02:49:15.390Z,933.85
2023-05-11T02:49:55.081Z,933.83
2023-05-11T02:51:00.818Z,933.83
2023-05-11T02:57:27.787Z,933.68
2023-05-11T03:01:33.672Z,933.64
2023-05-11T03:05:03.539Z,933.64
2023-05-11T03:05:39.755Z,933.65
2023-05-11T03:08:37.971Z,933.62
2023-05-11T03:10:51.635Z,933.56
2023-05-11T03:11:32.139Z,933.58
2023-05-11T03:12:32.021Z,933.58
2023-05-11T03:13:32.002Z,933.55
2023-05-11T03:14:32.031Z,933.51
2023-05-11T03:15:32.036Z,933.54
2023-05-11T03:16:32.074Z,933.57
2023-05-11T03:17:32.194Z,933.58
2023-05-11T03:18:32.104Z,933.59
2023-05-11T03:19:32.096Z,933.56
2023-05-11T03:20:32.109Z,933.55
2023-05-11T03:21:32.730Z,933.59
2023-05-11T03:22:32.149Z,933.58
2023-05-11T03:23:32.251Z,933.52
2023-05-11T03:24:32.164Z,933.55
2023-05-11T03:25:32.186Z,933.52
2023-05-11T03:26:32.200Z,933.56
2023-05-11T03:27:32.212Z,933.58
2023-05-11T03:28:32.249Z,933.53
2023-05-11T03:29:32.345Z,933.53
2023-05-11T03:30:32.250Z,933.55
2023-05-11T03:31:32.288Z,933.51
2023-05-11T03:32:32.284Z,933.50
2023-05-11T03:33:32.313Z,933.50
2023-05-11T03:34:32.318Z,933.49
2023-05-11T03:35:32.429Z,933.47
2023-05-11T03:36:32.341Z,933.43
2023-05-11T03:37:32.362Z,933.45
2023-05-11T03:38:32.381Z,933.43
2023-05-11T03:39:32.387Z,933.45
2023-05-11T03:40:32.502Z,933.50
2023-05-11T03:41:32.417Z,933.50
2023-05-11T03:42:32.432Z,933.52
2023-05-11T03:43:32.470Z,933.48
2023-05-11T03:44:32.488Z,933.48
2023-05-11T03:45:32.593Z,933.45
2023-05-11T03:46:32.589Z,933.44
2023-05-11T03:47:32.529Z,933.46
2023-05-11T03:48:32.569Z,933.43
2023-05-11T03:49:32.544Z,933.43
2023-05-11T03:50:32.543Z,933.40
2023-05-11T03:51:32.659Z,933.44
2023-05-11T03:52:32.585Z,933.41
2023-05-11T03:53:32.589Z,933.37
2023-05-11T03:54:32.606Z,933.39
2023-05-11T03:55:32.609Z,933.39
2023-05-11T03:56:32.633Z,933.40
2023-05-11T03:57:32.738Z,933.41
2023-05-11T03:58:32.654Z,933.39
2023-05-11T03:59:32.679Z,933.40
2023-05-11T04:00:32.704Z,933.42
2023-05-11T04:01:32.702Z,933.37
2023-05-11T04:02:32.887Z,933.40
2023-05-11T04:03:32.882Z,933.40
2023-05-11T04:04:32.814Z,933.33
2023-05-11T04:05:32.762Z,933.33
2023-05-11T04:06:32.780Z,933.30
2023-05-11T04:07:32.780Z,933.29
2023-05-11T04:08:32.903Z,933.23
2023-05-11T04:09:32.825Z,933.18
2023-05-11T04:10:32.840Z,933.18
2023-05-11T04:11:32.844Z,933.14
2023-05-11T04:12:32.864Z,933.16
2023-05-11T04:13:32.867Z,933.18
2023-05-11T04:14:33.004Z,933.19
2023-05-11T04:15:32.891Z,933.21
2023-05-11T04:16:33.297Z,933.23
2023-05-11T04:17:32.949Z,933.22
2023-05-11T04:18:32.998Z,933.22
2023-05-11T04:19:33.059Z,933.22
2023-05-11T04:20:32.975Z,933.19
2023-05-11T04:21:32.980Z,933.21
2023-05-11T04:22:32.995Z,933.22
2023-05-11T04:23:33.009Z,933.14
2023-05-11T04:24:33.029Z,933.15
2023-05-11T04:25:33.164Z,933.12
2023-05-11T04:26:33.059Z,933.16
2023-05-11T04:27:33.067Z,933.13
2023-05-11T04:28:33.089Z,933.08
2023-05-11T04:29:33.103Z,933.09
2023-05-11T04:30:33.220Z,933.12
2023-05-11T04:31:33.141Z,933.13
2023-05-11T04:32:33.213Z,933.13
2023-05-11T04:33:33.155Z,933.12
2023-05-11T04:34:33.169Z,933.15
2023-05-11T04:35:33.191Z,933.16
2023-05-11T04:36:33.304Z,933.18
2023-05-11T04:37:33.217Z,933.23
2023-05-11T04:38:33.227Z,933.27
2023-05-11T04:39:33.247Z,933.24
2023-05-11T04:40:34.512Z,933.30
2023-05-11T04:41:33.267Z,933.31
2023-05-11T04:42:33.390Z,933.33
2023-05-11T04:43:33.297Z,933.28
2023-05-11T04:44:33.311Z,933.33
2023-05-11T04:45:33.345Z,933.31
2023-05-11T04:46:33.382Z,933.31
2023-05-11T04:47:33.482Z,933.34
2023-05-11T04:48:33.397Z,933.33
2023-05-11T04:49:33.398Z,933.29
2023-05-11T04:50:33.397Z,933.29
2023-05-11T04:51:33.424Z,933.30
2023-05-11T04:52:33.438Z,933.27
2023-05-11T04:53:33.543Z,933.25
2023-05-11T04:54:33.452Z,933.25
2023-05-11T04:55:33.479Z,933.22
2023-05-11T04:56:33.483Z,933.22
2023-05-11T04:57:33.497Z,933.24
2023-05-11T04:58:33.623Z,933.27
2023-05-11T04:59:33.597Z,933.29
2023-05-11T05:00:33.544Z,933.25
2023-05-11T05:01:33.649Z,933.19
2023-05-11T05:02:33.608Z,933.23
2023-05-11T05:03:33.751Z,933.19
2023-05-11T05:04:36.214Z,933.14
2023-05-11T05:05:33.630Z,933.11
2023-05-11T05:06:33.640Z,933.15
2023-05-11T05:07:33.680Z,933.12
2023-05-11T05:08:33.673Z,933.07
2023-05-11T05:09:33.781Z,933.05
2023-05-11T05:10:33.695Z,932.99
2023-05-11T05:11:33.700Z,932.99
2023-05-11T05:12:33.723Z,933.01
2023-05-11T05:13:33.738Z,933.04
2023-05-11T05:14:33.744Z,933.05
2023-05-11T05:15:33.870Z,933.03
2023-05-11T05:16:33.821Z,933.06
2023-05-11T05:17:33.818Z,933.07
2023-05-11T05:18:33.886Z,933.02
2023-05-11T05:19:33.818Z,933.05
2023-05-11T05:20:33.858Z,933.11
2023-05-11T05:21:33.954Z,933.08
2023-05-11T05:22:33.871Z,933.04
2023-05-11T05:23:33.880Z,933.05
2023-05-11T05:24:33.894Z,933.08
2023-05-11T05:25:33.910Z,933.09
2023-05-11T05:26:33.919Z,933.15
2023-05-11T05:27:35.038Z,933.17
2023-05-11T05:28:33.948Z,933.16
2023-05-11T05:29:33.968Z,933.15
2023-05-11T05:30:34.015Z,933.18
2023-05-11T05:31:34.100Z,933.10
2023-05-11T05:32:34.065Z,933.17
2023-05-11T05:33:34.131Z,933.16
2023-05-11T05:34:34.033Z,933.18
2023-05-11T05:35:34.046Z,933.18
2023-05-11T05:36:34.088Z,933.16
2023-05-11T05:37:34.085Z,933.19
2023-05-11T05:38:34.195Z,933.19
2023-05-11T05:39:34.114Z,933.11
2023-05-11T05:40:34.118Z,933.11
2023-05-11T05:41:34.132Z,933.09
2023-05-11T05:42:34.147Z,933.05
2023-05-11T05:43:34.169Z,933.04
2023-05-11T05:44:34.275Z,933.00
2023-05-11T05:45:34.208Z,932.93
2023-05-11T05:46:34.273Z,932.89
2023-05-11T05:47:34.253Z,932.92
2023-05-11T05:48:34.237Z,932.93
2023-05-11T05:49:34.351Z,932.92
2023-05-11T05:50:34.270Z,932.99
2023-05-11T05:51:34.273Z,932.96
2023-05-11T05:52:34.328Z,932.97
2023-05-11T05:53:34.308Z,932.96
2023-05-11T05:54:34.319Z,932.93
2023-05-11T05:55:34.430Z,932.93
2023-05-11T05:56:34.348Z,932.97
2023-05-11T05:57:34.365Z,933.03
2023-05-11T05:58:34.386Z,933.01
2023-05-11T05:59:34.396Z,933.02
2023-05-11T06:00:34.401Z,933.03
2023-05-11T06:01:34.524Z,933.03
2023-05-11T06:02:34.509Z,933.04
2023-05-11T06:03:34.689Z,933.02
2023-05-11T06:04:34.479Z,933.08
2023-05-11T06:05:34.472Z,933.04
2023-05-11T06:06:34.490Z,932.97
2023-05-11T06:07:34.602Z,933.03
2023-05-11T06:08:34.534Z,932.96
2023-05-11T06:09:34.769Z,932.98
2023-05-11T06:10:34.552Z,932.92
2023-05-11T06:11:34.568Z,932.87
2023-05-11T06:12:34.583Z,932.88
2023-05-11T06:13:34.693Z,932.83
2023-05-11T06:14:34.601Z,932.84
2023-05-11T06:15:34.625Z,932.84
2023-05-11T06:16:34.718Z,932.78
2023-05-11T06:17:34.695Z,932.85
2023-05-11T06:18:34.770Z,932.84
2023-05-11T06:19:34.678Z,932.85
2023-05-11T06:20:34.687Z,932.86
2023-05-11T06:21:34.706Z,932.84
2023-05-11T06:22:34.734Z,932.85
2023-05-11T06:23:34.742Z,932.81
2023-05-11T06:24:34.868Z,932.88
2023-05-11T06:25:34.756Z,932.87
2023-05-11T06:26:34.775Z,932.84
2023-05-11T06:27:34.792Z,932.79
2023-05-11T06:28:34.802Z,932.80
2023-05-11T06:29:34.813Z,932.80
2023-05-11T06:30:34.925Z,932.79
2023-05-11T06:31:34.847Z,932.80
2023-05-11T06:32:34.909Z,932.74
2023-05-11T06:33:34.878Z,932.76
2023-05-11T06:34:34.897Z,932.71
2023-05-11T06:35:34.901Z,932.64
2023-05-11T06:36:35.013Z,932.60
2023-05-11T06:37:34.937Z,932.60
2023-05-11T06:38:34.961Z,932.62
2023-05-11T06:39:34.957Z,932.62
2023-05-11T06:40:34.990Z,932.62
2023-05-11T06:41:34.993Z,932.64
2023-05-11T06:42:35.101Z,932.67
2023-05-11T06:43:35.020Z,932.68
2023-05-11T06:44:35.028Z,932.67
2023-05-11T06:45:35.107Z,932.69
2023-05-11T06:46:35.116Z,932.72
2023-05-11T06:47:35.123Z,932.76
2023-05-11T06:48:35.201Z,932.75
2023-05-11T06:49:35.120Z,932.73
2023-05-11T06:50:35.116Z,932.70
2023-05-11T06:51:35.129Z,932.74
2023-05-11T06:52:35.149Z,932.77
2023-05-11T06:53:35.157Z,932.72
2023-05-11T06:54:35.280Z,932.72
2023-05-11T06:55:35.191Z,932.74
2023-05-11T06:56:35.267Z,932.75
2023-05-11T06:57:35.214Z,932.78
2023-05-11T06:58:35.236Z,932.75
2023-05-11T06:59:35.251Z,932.84
2023-05-11T07:00:35.357Z,932.80
2023-05-11T07:01:35.438Z,932.78
2023-05-11T07:02:35.351Z,932.79
2023-05-11T07:03:35.310Z,932.79
2023-05-11T07:04:35.357Z,932.81
2023-05-11T07:05:35.438Z,932.81
2023-05-11T07:06:35.341Z,932.82
2023-05-11T07:07:35.372Z,932.82
2023-05-11T07:08:35.375Z,932.78
2023-05-11T07:09:35.391Z,932.73
2023-05-11T07:10:35.404Z,932.72
2023-05-11T07:11:35.513Z,932.71
2023-05-11T07:12:35.443Z,932.69
2023-05-11T07:13:35.443Z,932.67
2023-05-11T07:14:35.457Z,932.65
2023-05-11T07:15:35.469Z,932.65
2023-05-11T07:16:35.636Z,932.61
2023-05-11T07:17:35.542Z,932.59
2023-05-11T07:18:35.548Z,932.58
2023-05-11T07:19:35.533Z,932.53
2023-05-11T07:20:35.548Z,932.53
2023-05-11T07:21:35.552Z,932.52
2023-05-11T07:22:35.674Z,932.51
2023-05-11T07:23:35.587Z,932.50
2023-05-11T07:24:35.604Z,932.51
2023-05-11T07:25:35.615Z,932.48
2023-05-11T07:26:35.644Z,932.48
2023-05-11T07:27:35.641Z,932.48
2023-05-11T07:28:35.771Z,932.49
2023-05-11T07:29:35.681Z,932.48
2023-05-11T07:30:35.695Z,932.48
2023-05-11T07:31:35.729Z,932.50
2023-05-11T07:32:35.745Z,932.50
2023-05-11T07:33:35.729Z,932.48
2023-05-11T07:34:35.842Z,932.52
2023-05-11T07:35:35.754Z,932.48
2023-05-11T07:36:35.763Z,932.51
2023-05-11T07:37:35.796Z,932.52
2023-05-11T07:38:35.793Z,932.55
2023-05-11T07:39:35.824Z,932.55
2023-05-11T07:40:35.919Z,932.54
2023-05-11T07:41:35.851Z,932.54
2023-05-11T07:42:35.849Z,932.55
2023-05-11T07:43:35.872Z,932.54
2023-05-11T07:44:35.922Z,932.53
2023-05-11T07:45:35.900Z,932.49
2023-05-11T07:46:36.053Z,932.50
2023-05-11T07:47:37.043Z,932.54
2023-05-11T07:48:35.942Z,932.54
2023-05-11T07:49:43.524Z,932.54
2023-05-11T07:50:36.568Z,932.56
2023-05-11T07:51:35.976Z,932.57
2023-05-11T07:52:36.089Z,932.58
2023-05-11T07:53:36.012Z,932.61
2023-05-11T07:54:36.031Z,932.66
2023-05-11T07:55:36.040Z,932.66
2023-05-11T07:56:36.053Z,932.64
2023-05-11T07:57:36.160Z,932.65
2023-05-11T07:58:36.092Z,932.69
2023-05-11T07:59:36.111Z,932.66
2023-05-11T08:00:36.136Z,932.67
2023-05-11T08:01:36.125Z,932.64
2023-05-11T08:02:36.275Z,932.65
2023-05-11T08:03:36.285Z,932.69
2023-05-11T08:04:36.169Z,932.64
2023-05-11T08:05:36.363Z,932.66
2023-05-11T08:06:36.188Z,932.69
2023-05-11T08:07:37.050Z,932.69
2023-05-11T08:08:36.331Z,932.68
2023-05-11T08:09:36.230Z,932.69
2023-05-11T08:10:36.472Z,932.70
2023-05-11T08:11:36.268Z,932.70
2023-05-11T08:12:36.277Z,932.71
2023-05-11T08:13:36.302Z,932.72
2023-05-11T08:14:36.414Z,932.74
2023-05-11T08:15:36.329Z,932.74
2023-05-11T08:16:36.526Z,932.77
2023-05-11T08:17:36.406Z,932.76
2023-05-11T08:18:36.431Z,932.78
2023-05-11T08:19:36.471Z,932.76
2023-05-11T08:20:36.395Z,932.76
2023-05-11T08:21:36.409Z,932.75
2023-05-11T08:22:36.417Z,932.77
2023-05-11T08:23:36.436Z,932.74
2023-05-11T08:24:36.456Z,932.77
2023-05-11T08:25:36.563Z,932.77
2023-05-11T08:26:36.474Z,932.74
2023-05-11T08:27:36.488Z,932.76
2023-05-11T08:28:36.511Z,932.76
2023-05-11T08:29:36.519Z,932.83
2023-05-11T08:30:36.531Z,932.85
2023-05-11T08:31:36.668Z,932.81
2023-05-11T08:32:46.649Z,932.83
2023-05-11T08:33:38.577Z,932.84
2023-05-11T08:34:36.695Z,932.80
2023-05-11T08:35:36.609Z,932.86
2023-05-11T08:36:36.615Z,932.84
2023-05-11T08:37:36.730Z,932.85
2023-05-11T08:38:36.647Z,932.83
2023-05-11T08:39:46.495Z,932.83
2023-05-11T08:40:36.680Z,932.87
2023-05-11T08:41:36.688Z,932.84
2023-05-11T08:42:36.812Z,932.87
2023-05-11T08:43:36.713Z,932.89
2023-05-11T08:44:36.736Z,932.87
2023-05-11T08:45:37.340Z,932.85
2023-05-11T08:46:36.767Z,932.85
2023-05-11T08:47:36.786Z,932.88
2023-05-11T08:48:36.912Z,932.90
2023-05-11T08:49:36.805Z,932.88
2023-05-11T08:50:36.822Z,932.89
2023-05-11T08:51:36.824Z,932.89
2023-05-11T08:52:36.847Z,932.95
2023-05-11T08:53:36.858Z,932.96
2023-05-11T08:54:36.973Z,933.00
2023-05-11T08:55:36.889Z,932.97
2023-05-11T08:56:36.900Z,933.00
2023-05-11T08:57:36.924Z,933.00
2023-05-11T08:58:36.933Z,932.99
2023-05-11T08:59:36.951Z,933.00
2023-05-11T09:00:37.066Z,932.99
2023-05-11T09:01:36.992Z,933.01
2023-05-11T09:02:37.011Z,932.97
2023-05-11T09:03:37.014Z,933.01
2023-05-11T09:04:37.036Z,933.04
2023-05-11T09:05:37.285Z,933.02
2023-05-11T09:06:37.054Z,933.00
2023-05-11T09:07:37.053Z,933.01
2023-05-11T09:08:37.082Z,933.06
2023-05-11T09:09:37.086Z,933.02
2023-05-11T09:10:37.201Z,933.03
2023-05-11T09:11:37.113Z,933.04
2023-05-11T09:12:37.131Z,933.08
2023-05-11T09:13:37.136Z,933.05
2023-05-11T09:14:37.149Z,933.08
2023-05-11T09:15:38.184Z,933.14
2023-05-11T09:16:37.902Z,933.08
2023-05-11T09:17:37.244Z,933.11
2023-05-11T09:18:37.230Z,933.09
2023-05-11T09:19:37.223Z,933.12
2023-05-11T09:20:37.354Z,933.13
2023-05-11T09:21:37.249Z,933.16
2023-05-11T09:22:37.271Z,933.21
2023-05-11T09:23:37.284Z,933.18
2023-05-11T09:24:37.291Z,933.22
2023-05-11T09:25:37.319Z,933.24
2023-05-11T09:26:37.433Z,933.19
2023-05-11T09:27:38.601Z,933.23
2023-05-11T09:28:37.478Z,933.23
2023-05-11T09:29:37.361Z,933.24
2023-05-11T09:30:37.391Z,933.23
2023-05-11T09:31:37.526Z,933.23
2023-05-11T09:32:37.528Z,933.26
2023-05-11T09:33:37.427Z,933.30
2023-05-11T09:34:43.289Z,933.29
2023-05-11T09:35:37.447Z,933.31
2023-05-11T09:36:37.482Z,933.32
2023-05-11T09:37:37.483Z,933.26
2023-05-11T09:38:37.598Z,933.30
2023-05-11T09:39:42.295Z,933.28
2023-05-11T09:40:37.526Z,933.28
2023-05-11T09:41:37.536Z,933.37
2023-05-11T09:42:37.554Z,933.37
2023-05-11T09:43:37.669Z,933.39
2023-05-11T09:44:37.592Z,933.39
2023-05-11T09:45:37.601Z,933.41
2023-05-11T09:46:37.670Z,933.39
2023-05-11T09:47:37.655Z,933.40
2023-05-11T09:48:37.633Z,933.43
2023-05-11T09:49:37.769Z,933.39
2023-05-11T09:50:37.660Z,933.36
2023-05-11T09:51:37.687Z,933.36
2023-05-11T09:52:37.718Z,933.39
2023-05-11T09:53:37.714Z,933.35
2023-05-11T09:54:37.719Z,933.33
2023-05-11T09:55:37.829Z,933.39
2023-05-11T09:56:37.747Z,933.40
2023-05-11T09:57:37.765Z,933.39
2023-05-11T09:58:37.773Z,933.41
2023-05-11T09:59:37.789Z,933.43
2023-05-11T10:00:37.907Z,933.42
2023-05-11T10:01:37.864Z,933.42
2023-05-11T10:02:37.996Z,933.44
2023-05-11T10:03:37.937Z,933.44
2023-05-11T10:04:37.856Z,933.45
2023-05-11T10:05:37.878Z,933.47
2023-05-11T10:06:37.986Z,933.49
2023-05-11T10:07:37.923Z,933.52
2023-05-11T10:08:37.927Z,933.54
2023-05-11T10:09:37.934Z,933.57
2023-05-11T10:10:37.947Z,933.56
2023-05-11T10:11:37.954Z,933.59
2023-05-11T10:12:38.166Z,933.60
2023-05-11T10:13:37.995Z,933.56
2023-05-11T10:14:38.006Z,933.64
2023-05-11T10:15:38.013Z,933.58
2023-05-11T10:16:38.117Z,933.62
2023-05-11T10:17:38.350Z,933.58
2023-05-11T10:18:38.177Z,933.57
2023-05-11T10:19:38.068Z,933.57
2023-05-11T10:20:38.080Z,933.57
2023-05-11T10:21:38.093Z,933.60
2023-05-11T10:22:38.124Z,933.64
2023-05-11T10:23:38.239Z,933.66
2023-05-11T10:24:38.165Z,933.69
2023-05-11T10:25:38.151Z,933.73
2023-05-11T10:26:38.173Z,933.72
2023-05-11T10:27:38.179Z,933.75
2023-05-11T10:28:38.198Z,933.77
2023-05-11T10:29:38.314Z,933.76
2023-05-11T10:30:38.231Z,933.75
2023-05-11T10:31:38.712Z,933.74
2023-05-11T10:32:38.298Z,933.74
2023-05-11T10:33:38.266Z,933.77
2023-05-11T10:34:38.394Z,933.73
2023-05-11T10:35:38.301Z,933.73
2023-05-11T10:36:38.318Z,933.73
2023-05-11T10:37:38.329Z,933.72
2023-05-11T10:38:38.336Z,933.73
2023-05-11T10:39:38.350Z,933.71
2023-05-11T10:40:38.487Z,933.73
2023-05-11T10:41:38.371Z,933.71
2023-05-11T10:42:38.390Z,933.72
2023-05-11T10:43:38.400Z,933.71
2023-05-11T10:44:38.418Z,933.70
2023-05-11T10:45:38.586Z,933.72
2023-05-11T10:46:38.444Z,933.73
2023-05-11T10:47:38.490Z,933.76
2023-05-11T10:48:38.941Z,933.73
2023-05-11T10:49:38.509Z,933.79
2023-05-11T10:50:38.513Z,933.79
2023-05-11T10:51:38.612Z,933.77
2023-05-11T10:52:38.532Z,933.80
2023-05-11T10:53:38.549Z,933.80
2023-05-11T10:54:38.567Z,933.84
2023-05-11T10:55:38.580Z,933.83
2023-05-11T10:56:38.613Z,933.89
2023-05-11T10:57:38.704Z,933.85
2023-05-11T10:58:38.619Z,933.87
2023-05-11T10:59:38.630Z,933.88
2023-05-11T11:00:38.663Z,933.90
2023-05-11T11:01:38.702Z,933.87
2023-05-11T11:02:38.716Z,933.85
2023-05-11T11:03:38.786Z,933.91
2023-05-11T11:04:38.702Z,933.91
2023-05-11T11:05:38.932Z,933.97
2023-05-11T11:06:38.744Z,933.93
2023-05-11T11:07:38.748Z,933.97
2023-05-11T11:08:38.758Z,933.99
2023-05-11T11:09:38.865Z,933.95
2023-05-11T11:10:38.826Z,934.00
2023-05-11T11:11:38.793Z,933.97
2023-05-11T11:12:38.864Z,933.93
2023-05-11T11:13:38.821Z,933.96
2023-05-11T11:14:38.842Z,934.01
2023-05-11T11:15:38.950Z,933.97
2023-05-11T11:16:38.906Z,933.91
2023-05-11T11:17:38.895Z,933.96
2023-05-11T11:18:38.966Z,933.97
2023-05-11T11:19:38.903Z,933.96
2023-05-11T11:20:38.928Z,933.93
2023-05-11T11:21:39.034Z,933.96
2023-05-11T11:22:39.129Z,933.96
2023-05-11T11:23:39.021Z,933.98
2023-05-11T11:24:38.992Z,934.00
2023-05-11T11:25:38.992Z,934.00
2023-05-11T11:26:39.019Z,934.01
2023-05-11T11:27:39.127Z,933.97
2023-05-11T11:28:39.061Z,933.96
2023-05-11T11:29:39.053Z,933.98
2023-05-11T11:30:39.069Z,933.97
2023-05-11T11:31:39.128Z,933.93
2023-05-11T11:32:39.215Z,933.94
2023-05-11T11:33:39.107Z,933.93
2023-05-11T11:34:39.214Z,933.94
2023-05-11T11:35:39.132Z,933.91
2023-05-11T11:36:39.158Z,933.93
2023-05-11T11:37:39.175Z,933.95
2023-05-11T11:38:39.276Z,933.94
2023-05-11T11:39:39.190Z,933.95
2023-05-11T11:40:47.219Z,933.97
2023-05-11T11:41:39.224Z,933.97
2023-05-11T11:42:39.233Z,934.00
2023-05-11T11:43:39.246Z,934.00
2023-05-11T11:44:39.405Z,933.99
2023-05-11T11:45:39.276Z,934.02
2023-05-11T11:46:39.337Z,934.02
2023-05-11T11:47:39.379Z,934.03
2023-05-11T11:48:39.323Z,934.05
2023-05-11T11:49:39.345Z,934.06
2023-05-11T11:50:39.448Z,934.05
2023-05-11T11:51:39.356Z,934.01
2023-05-11T11:52:39.375Z,934.03
2023-05-11T11:53:39.396Z,934.03
2023-05-11T11:54:39.396Z,934.06
2023-05-11T11:55:39.524Z,934.07
2023-05-11T11:56:39.423Z,934.04
2023-05-11T11:57:39.841Z,934.08
2023-05-11T11:58:39.451Z,934.05
2023-05-11T11:59:39.472Z,934.02
2023-05-11T12:00:39.520Z,934.07
2023-05-11T12:01:39.604Z,934.04
2023-05-11T12:02:39.566Z,934.06
2023-05-11T12:03:39.619Z,934.06
2023-05-11T12:04:39.597Z,934.04
2023-05-11T12:05:39.564Z,934.01
2023-05-11T12:06:39.586Z,934.05
2023-05-11T12:07:39.683Z,934.06
2023-05-11T12:08:39.593Z,934.10
2023-05-11T12:09:39.643Z,934.09
2023-05-11T12:10:39.624Z,934.09
2023-05-11T12:11:39.636Z,934.13
2023-05-11T12:12:39.853Z,934.11
2023-05-11T12:13:39.764Z,934.20
2023-05-11T12:14:39.684Z,934.18
2023-05-11T12:15:39.694Z,934.18
2023-05-11T12:16:39.782Z,934.20
2023-05-11T12:17:39.753Z,934.21
2023-05-11T12:18:39.807Z,934.23
2023-05-11T12:19:39.844Z,934.22
2023-05-11T12:20:39.766Z,934.24
2023-05-11T12:21:39.768Z,934.23
2023-05-11T12:22:39.794Z,934.25
2023-05-11T12:23:39.804Z,934.23
2023-05-11T12:24:39.822Z,934.25
2023-05-11T12:25:39.938Z,934.28
2023-05-11T12:26:39.845Z,934.27
2023-05-11T12:27:39.853Z,934.31
2023-05-11T12:28:39.879Z,934.30
2023-05-11T12:29:39.882Z,934.27
2023-05-11T12:30:39.897Z,934.31
2023-05-11T12:31:40.045Z,934.33
2023-05-11T12:32:39.973Z,934.34
2023-05-11T12:33:39.943Z,934.29
2023-05-11T12:34:39.949Z,934.30
2023-05-11T12:35:39.982Z,934.28
2023-05-11T12:36:40.002Z,934.29
2023-05-11T12:37:40.096Z,934.27
2023-05-11T12:38:40.012Z,934.28
2023-05-11T12:39:40.032Z,934.27
2023-05-11T12:40:40.059Z,934.31
2023-05-11T12:41:40.059Z,934.31
2023-05-11T12:42:40.076Z,934.30
2023-05-11T12:43:40.191Z,934.28
2023-05-11T12:44:40.103Z,934.26
2023-05-11T12:45:40.120Z,934.29
2023-05-11T12:46:40.167Z,934.29
2023-05-11T12:47:40.156Z,934.31
2023-05-11T12:48:40.177Z,934.32
2023-05-11T12:49:40.268Z,934.31
2023-05-11T12:50:40.181Z,934.32
2023-05-11T12:51:40.196Z,934.36
2023-05-11T12:52:40.218Z,934.34
2023-05-11T12:53:40.228Z,934.36
2023-05-11T12:54:40.293Z,934.34
2023-05-11T12:55:40.357Z,934.35
2023-05-11T12:56:40.271Z,934.34
2023-05-11T12:57:40.335Z,934.35
2023-05-11T12:58:40.297Z,934.34
2023-05-11T12:59:40.324Z,934.35
2023-05-11T13:00:40.324Z,934.36
2023-05-11T13:01:40.468Z,934.39
2023-05-11T13:02:40.389Z,934.40
2023-05-11T13:03:40.496Z,934.39
2023-05-11T13:04:40.411Z,934.36
2023-05-11T13:05:40.399Z,934.34
2023-05-11T13:06:40.412Z,934.37
2023-05-11T13:07:40.526Z,934.39
2023-05-11T13:08:40.442Z,934.39
2023-05-11T13:09:40.446Z,934.42
2023-05-11T13:10:40.476Z,934.40
2023-05-11T13:11:40.474Z,934.40
2023-05-11T13:12:40.493Z,934.38
2023-05-11T13:13:40.627Z,934.40
2023-05-11T13:14:40.517Z,934.40
2023-05-11T13:15:40.566Z,934.40
2023-05-11T13:16:40.552Z,934.33
2023-05-11T13:17:40.579Z,934.34
2023-05-11T13:18:40.613Z,934.33
2023-05-11T13:19:40.703Z,934.33
2023-05-11T13:20:40.619Z,934.33
2023-05-11T13:21:40.625Z,934.32
2023-05-11T13:22:40.637Z,934.31
2023-05-11T13:23:40.652Z,934.28
2023-05-11T13:24:40.667Z,934.26
2023-05-11T13:25:40.770Z,934.22
2023-05-11T13:26:40.683Z,934.26
2023-05-11T13:27:40.698Z,934.27
2023-05-11T13:28:40.719Z,934.27
2023-05-11T13:29:40.730Z,934.28
2023-05-11T13:30:40.799Z,934.25
2023-05-11T13:31:40.892Z,934.22
2023-05-11T13:32:40.914Z,934.21
2023-05-11T13:33:40.804Z,934.17
2023-05-11T13:34:40.807Z,934.16
2023-05-11T13:35:40.830Z,934.14
2023-05-11T13:36:40.848Z,934.12
2023-05-11T13:37:40.945Z,934.11
2023-05-11T13:38:40.859Z,934.08
2023-05-11T13:39:40.884Z,934.07
2023-05-11T13:40:40.889Z,934.03
2023-05-11T13:41:40.899Z,934.01
2023-05-11T13:42:40.915Z,934.04
2023-05-11T13:43:41.033Z,934.05
2023-05-11T13:44:40.937Z,934.05
2023-05-11T13:45:40.975Z,934.03
2023-05-11T13:46:41.031Z,934.04
2023-05-11T13:47:43.156Z,934.05
2023-05-11T13:48:40.998Z,934.02
2023-05-11T13:49:41.157Z,934.02
2023-05-11T13:50:41.037Z,934.01
2023-05-11T13:51:41.054Z,934.00
2023-05-11T13:52:41.082Z,933.98
2023-05-11T13:53:41.073Z,933.97
2023-05-11T13:54:41.295Z,933.95
2023-05-11T13:55:41.394Z,933.94
2023-05-11T13:56:41.110Z,933.88
2023-05-11T13:57:41.163Z,933.88
2023-05-11T13:58:41.139Z,933.89
2023-05-11T13:59:41.150Z,933.86
2023-05-11T14:00:41.189Z,933.83
2023-05-11T14:01:41.332Z,933.80
2023-05-11T14:02:41.292Z,933.79
2023-05-11T14:03:41.244Z,933.76
2023-05-11T14:04:41.228Z,933.72
2023-05-11T14:05:41.244Z,933.71
2023-05-11T14:06:41.251Z,933.71
2023-05-11T14:07:47.727Z,933.73
2023-05-11T14:08:41.412Z,933.70
2023-05-11T14:09:41.294Z,933.73
2023-05-11T14:10:41.306Z,933.74
2023-05-11T14:11:41.320Z,933.71
2023-05-11T14:12:42.049Z,933.65
2023-05-11T14:13:41.351Z,933.66
2023-05-11T14:14:41.376Z,933.65
2023-05-11T14:15:41.396Z,933.63
2023-05-11T14:16:41.405Z,933.65
2023-05-11T14:17:41.518Z,933.62
2023-05-11T14:18:41.635Z,933.58
2023-05-11T14:19:41.518Z,933.58
2023-05-11T14:20:41.464Z,933.54
2023-05-11T14:21:41.476Z,933.52
2023-05-11T14:22:41.606Z,933.53
2023-05-11T14:23:49.915Z,933.52
2023-05-11T14:24:41.636Z,933.51
2023-05-11T14:25:41.539Z,933.54
2023-05-11T14:26:41.598Z,933.51
2023-05-11T14:27:41.573Z,933.51
2023-05-11T14:28:41.571Z,933.54
2023-05-11T14:29:43.996Z,933.48
2023-05-11T14:30:41.739Z,933.48
2023-05-11T14:31:41.609Z,933.49
2023-05-11T14:32:41.666Z,933.43
2023-05-11T14:33:41.637Z,933.37
2023-05-11T14:34:41.652Z,933.40
2023-05-11T14:35:41.677Z,933.38
2023-05-11T14:36:41.885Z,933.36
2023-05-11T14:37:41.742Z,933.32
2023-05-11T14:38:41.709Z,933.29
2023-05-11T14:39:41.727Z,933.31
2023-05-11T14:40:41.799Z,933.32
2023-05-11T14:41:41.758Z,933.35
2023-05-11T14:42:41.864Z,933.30